createdAt,value
2023-01-17T00:01:52.148Z,5.40
2023-01-17T00:05:14.122Z,6.70
2023-01-17T00:08:55.250Z,6.35
2023-01-17T00:11:59.365Z,6.37
2023-01-17T00:15:02.581Z,7.80
2023-01-17T00:18:06.088Z,6.25
2023-01-17T00:21:27.670Z,6.70
2023-01-17T00:24:50.494Z,7.12
2023-01-17T00:27:53.352Z,7.00
2023-01-17T00:30:56.625Z,6.28
2023-01-17T00:33:59.635Z,5.30
2023-01-17T00:37:02.794Z,6.40
2023-01-17T00:40:06.460Z,6.12
2023-01-17T00:43:29.781Z,5.93
2023-01-17T00:46:51.430Z,5.62
2023-01-17T00:50:13.358Z,6.15
2023-01-17T00:53:35.358Z,5.75
2023-01-17T00:56:57.246Z,7.00
2023-01-17T01:00:18.654Z,6.62
2023-01-17T01:03:41.064Z,7.07
2023-01-17T01:07:02.687Z,7.15
2023-01-17T01:10:25.238Z,6.43
2023-01-17T01:13:48.487Z,6.18
2023-01-17T01:17:10.451Z,7.00
2023-01-17T01:20:33.060Z,6.30
2023-01-17T01:23:55.067Z,6.53
2023-01-17T01:27:16.929Z,7.30
2023-01-17T01:30:39.131Z,6.47
2023-01-17T01:33:43.517Z,6.53
2023-01-17T01:36:46.744Z,6.45
2023-01-17T01:39:50.176Z,7.15
2023-01-17T01:42:55.389Z,8.43
2023-01-17T01:45:59.216Z,8.65
2023-01-17T01:49:29.745Z,7.32
2023-01-17T01:52:34.840Z,7.50
2023-01-17T01:58:45.508Z,7.62
2023-01-17T02:01:50.754Z,7.85
2023-01-17T02:08:02.392Z,7.70
2023-01-17T02:11:05.988Z,8.25
2023-01-17T02:14:14.259Z,8.90
2023-01-17T02:18:14.976Z,8.50
2023-01-17T02:21:26.657Z,8.98
2023-01-17T02:24:52.291Z,7.68
2023-01-17T02:28:23.377Z,8.20
2023-01-17T02:31:32.792Z,7.40
2023-01-17T02:34:46.710Z,5.97
2023-01-17T02:38:05.268Z,7.30
2023-01-17T02:41:21.850Z,5.60
2023-01-17T02:44:25.072Z,5.25
2023-01-17T02:47:30.363Z,5.70
2023-01-17T02:50:59.792Z,5.18
2023-01-17T02:54:05.705Z,4.85
2023-01-17T02:57:23.850Z,3.53
2023-01-17T03:00:35.941Z,4.93
2023-01-17T03:03:57.998Z,5.65
2023-01-17T03:07:04.590Z,4.93
2023-01-17T03:10:10.234Z,6.10
2023-01-17T03:16:21.339Z,8.05
2023-01-17T03:19:25.545Z,7.95
2023-01-17T03:22:28.756Z,8.23
2023-01-17T03:25:32.601Z,8.10
2023-01-17T03:28:35.841Z,8.23
2023-01-17T03:31:38.701Z,8.45
2023-01-17T03:34:42.129Z,8.00
2023-01-17T03:37:45.126Z,7.70
2023-01-17T03:40:48.322Z,7.57
2023-01-17T03:43:51.317Z,7.18
2023-01-17T03:46:54.484Z,7.05
2023-01-17T03:49:57.527Z,6.85
2023-01-17T03:53:00.889Z,5.65
2023-01-17T03:56:03.835Z,4.50
2023-01-17T03:59:08.113Z,3.83
2023-01-17T04:02:11.172Z,3.72
2023-01-17T04:05:15.130Z,2.95
2023-01-17T04:08:18.098Z,4.05
2023-01-17T04:11:21.634Z,3.12
2023-01-17T04:14:24.511Z,3.90
2023-01-17T04:17:27.832Z,4.53
2023-01-17T04:20:36.332Z,3.75
2023-01-17T04:23:39.634Z,4.95
2023-01-17T04:26:42.589Z,4.50
2023-01-17T04:29:46.845Z,4.80
2023-01-17T04:32:50.353Z,4.32
2023-01-17T04:35:54.483Z,4.45
2023-01-17T04:38:57.226Z,4.78
2023-01-17T04:42:00.450Z,5.07
2023-01-17T04:45:04.031Z,5.72
2023-01-17T04:48:07.984Z,4.65
2023-01-17T04:51:10.863Z,4.80
2023-01-17T04:54:14.324Z,4.43
2023-01-17T04:57:18.295Z,4.35
2023-01-17T05:00:24.048Z,4.15
2023-01-17T05:03:27.161Z,4.90
2023-01-17T05:06:30.472Z,4.87
2023-01-17T05:09:33.462Z,5.12
2023-01-17T05:12:36.685Z,4.93
2023-01-17T05:15:39.723Z,4.93
2023-01-17T05:18:42.991Z,4.70
2023-01-17T05:21:45.910Z,5.35
2023-01-17T05:24:49.244Z,4.80
2023-01-17T05:27:52.619Z,4.35
2023-01-17T05:30:55.881Z,5.07
2023-01-17T05:34:00.178Z,4.85
2023-01-17T05:37:03.429Z,4.60
2023-01-17T05:40:09.770Z,4.35
2023-01-17T05:43:13.479Z,4.40
2023-01-17T05:46:18.145Z,4.35
2023-01-17T05:49:21.432Z,4.32
2023-01-17T05:52:24.403Z,4.70
2023-01-17T05:55:28.950Z,4.28
2023-01-17T05:58:31.942Z,4.57
2023-01-17T06:01:35.125Z,5.00
2023-01-17T06:04:38.363Z,5.22
2023-01-17T06:07:44.305Z,4.87
2023-01-17T06:10:47.505Z,5.57
2023-01-17T06:13:50.476Z,5.30
2023-01-17T06:16:53.839Z,5.60
2023-01-17T06:19:56.739Z,3.97
2023-01-17T06:23:04.570Z,4.15
2023-01-17T06:26:09.179Z,3.78
2023-01-17T06:29:12.620Z,3.92
2023-01-17T06:32:16.905Z,3.85
2023-01-17T06:35:20.085Z,3.73
2023-01-17T06:38:23.547Z,2.78
2023-01-17T06:41:26.822Z,2.30
2023-01-17T06:44:29.846Z,1.90
2023-01-17T06:47:33.042Z,2.50
2023-01-17T06:50:36.071Z,1.75
2023-01-17T06:53:40.359Z,1.87
2023-01-17T06:56:43.583Z,2.60
2023-01-17T06:59:47.590Z,2.10
2023-01-17T07:02:51.052Z,2.50
2023-01-17T07:05:54.779Z,1.33
2023-01-17T07:08:57.733Z,1.73
2023-01-17T07:12:02.253Z,1.75
2023-01-17T07:15:06.442Z,1.70
2023-01-17T07:18:10.438Z,1.23
2023-01-17T07:21:15.622Z,2.08
2023-01-17T07:24:19.569Z,1.85
2023-01-17T07:27:22.661Z,1.42
2023-01-17T07:30:27.087Z,2.15
2023-01-17T07:33:30.020Z,1.92
2023-01-17T07:36:33.626Z,1.42
2023-01-17T07:39:37.524Z,1.35
2023-01-17T07:42:40.737Z,1.62
2023-01-17T07:45:45.737Z,2.10
2023-01-17T07:48:48.990Z,2.12
2023-01-17T07:51:51.909Z,1.40
2023-01-17T07:54:55.252Z,1.58
2023-01-17T07:57:58.179Z,1.20
2023-01-17T08:01:10.292Z,1.40
2023-01-17T08:04:14.724Z,2.00
2023-01-17T08:07:17.752Z,1.48
2023-01-17T08:10:21.471Z,1.60
2023-01-17T08:13:24.537Z,1.95
2023-01-17T08:16:28.911Z,1.65
2023-01-17T08:19:31.939Z,1.98
2023-01-17T08:22:35.215Z,1.80
2023-01-17T08:25:39.306Z,1.90
2023-01-17T08:28:42.645Z,2.78
2023-01-17T08:31:45.849Z,2.47
2023-01-17T08:34:49.242Z,1.92
2023-01-17T08:37:54.876Z,1.75
2023-01-17T08:41:01.484Z,1.70
2023-01-17T08:44:04.708Z,1.70
2023-01-17T08:47:08.056Z,1.60
2023-01-17T08:50:11.352Z,1.55
2023-01-17T08:53:16.396Z,1.98
2023-01-17T08:56:20.106Z,2.45
2023-01-17T08:59:23.531Z,1.65
2023-01-17T09:02:26.519Z,2.17
2023-01-17T09:05:29.828Z,2.35
2023-01-17T09:08:33.440Z,2.60
2023-01-17T09:11:37.084Z,2.60
2023-01-17T09:14:40.171Z,2.67
2023-01-17T09:17:43.815Z,2.00
2023-01-17T09:20:46.863Z,1.77
2023-01-17T09:23:50.149Z,1.75
2023-01-17T09:26:53.049Z,1.90
2023-01-17T09:29:56.279Z,2.00
2023-01-17T09:32:59.455Z,2.00
2023-01-17T09:36:04.510Z,2.03
2023-01-17T09:39:08.331Z,3.12
2023-01-17T09:42:39.566Z,2.95
2023-01-17T09:45:42.533Z,2.17
2023-01-17T09:48:46.008Z,2.28
2023-01-17T09:51:50.060Z,2.30
2023-01-17T09:54:53.522Z,3.13
2023-01-17T09:58:07.117Z,2.97
2023-01-17T10:01:34.498Z,1.80
2023-01-17T10:05:14.758Z,1.40
2023-01-17T10:08:32.844Z,1.83
2023-01-17T10:12:06.608Z,1.70
2023-01-17T10:15:15.495Z,1.60
2023-01-17T10:18:47.991Z,1.95
2023-01-17T10:21:59.305Z,1.67
2023-01-17T10:25:24.645Z,1.85
2023-01-17T10:28:53.260Z,1.60
2023-01-17T10:32:00.109Z,1.42
2023-01-17T10:35:15.847Z,2.47
2023-01-17T10:38:19.872Z,1.45
2023-01-17T10:41:29.264Z,2.12
2023-01-17T10:44:43.981Z,1.50
2023-01-17T10:47:54.173Z,1.50
2023-01-17T10:51:03.627Z,1.23
2023-01-17T10:54:09.477Z,1.65
2023-01-17T10:57:15.653Z,2.03
2023-01-17T11:00:44.398Z,1.80
2023-01-17T11:03:54.638Z,1.73
2023-01-17T11:07:18.871Z,3.85
2023-01-17T11:10:40.352Z,2.47
2023-01-17T11:13:48.608Z,2.30
2023-01-17T11:17:02.742Z,2.05
2023-01-17T11:20:15.770Z,2.28
2023-01-17T11:23:30.519Z,1.80
2023-01-17T11:26:34.912Z,2.15
2023-01-17T11:29:39.655Z,2.00
2023-01-17T11:33:00.125Z,2.90
2023-01-17T11:36:03.395Z,2.70
2023-01-17T11:39:22.930Z,2.65
2023-01-17T11:42:34.854Z,2.12
2023-01-17T11:45:41.493Z,3.10
2023-01-17T11:48:54.967Z,3.47
2023-01-17T11:51:58.946Z,4.10
2023-01-17T11:55:02.240Z,3.65
2023-01-17T11:58:05.433Z,2.67
2023-01-17T12:01:27.319Z,3.47
2023-01-17T12:05:06.060Z,3.03
2023-01-17T12:08:28.374Z,3.00
2023-01-17T12:12:00.659Z,2.50
2023-01-17T12:15:37.757Z,2.22
2023-01-17T12:18:49.931Z,2.70
2023-01-17T12:22:05.355Z,2.58
2023-01-17T12:25:29.328Z,2.33
2023-01-17T12:28:50.862Z,2.40
2023-01-17T12:31:54.034Z,2.33
2023-01-17T12:35:02.231Z,1.70
2023-01-17T12:38:31.841Z,1.62
2023-01-17T12:41:53.201Z,2.40
2023-01-17T12:45:10.482Z,1.60
2023-01-17T12:48:19.125Z,1.50
2023-01-17T12:51:29.160Z,1.30
2023-01-17T12:54:38.413Z,1.33
2023-01-17T12:57:45.837Z,1.20
2023-01-17T13:00:55.047Z,1.08
2023-01-17T13:04:32.195Z,1.52
2023-01-17T13:07:50.595Z,1.70
2023-01-17T13:11:02.205Z,1.70
2023-01-17T13:14:08.814Z,1.40
2023-01-17T13:17:26.837Z,1.27
2023-01-17T13:21:08.409Z,1.30
2023-01-17T13:24:22.908Z,1.30
2023-01-17T13:28:06.885Z,1.60
2023-01-17T13:31:32.514Z,1.48
2023-01-17T13:34:49.455Z,1.30
2023-01-17T13:37:56.184Z,1.50
2023-01-17T13:41:05.021Z,1.48
2023-01-17T13:44:23.158Z,1.80
2023-01-17T13:47:26.225Z,2.55
2023-01-17T13:50:39.217Z,1.60
2023-01-17T13:53:42.648Z,1.70
2023-01-17T13:56:45.993Z,1.50
2023-01-17T13:59:50.939Z,1.58
2023-01-17T14:05:58.905Z,1.10
2023-01-17T14:09:20.938Z,1.02
2023-01-17T14:12:26.460Z,1.60
2023-01-17T14:18:34.348Z,2.03
2023-01-17T14:21:37.287Z,1.80
2023-01-17T14:25:01.236Z,2.15
2023-01-17T14:28:08.434Z,2.30
2023-01-17T14:31:11.881Z,1.70
2023-01-17T14:34:23.927Z,1.37
2023-01-17T14:37:33.094Z,1.45
2023-01-17T14:40:38.510Z,1.48
2023-01-17T14:43:43.635Z,1.80
2023-01-17T14:46:48.658Z,1.62
2023-01-17T14:53:12.127Z,1.37
2023-01-17T14:56:17.263Z,1.50
2023-01-17T14:59:22.185Z,1.52
2023-01-17T15:02:25.561Z,1.35
2023-01-17T15:05:30.359Z,1.55
2023-01-17T15:08:35.516Z,1.70
2023-01-17T15:11:39.106Z,1.98
2023-01-17T15:14:45.551Z,1.83
2023-01-17T15:17:48.532Z,2.10
2023-01-17T15:21:03.358Z,1.85
2023-01-17T15:24:08.461Z,1.98
2023-01-17T15:27:14.709Z,2.00
2023-01-17T15:30:18.419Z,2.45
2023-01-17T15:33:21.708Z,5.70
2023-01-17T15:36:30.191Z,11.68
2023-01-17T15:39:40.053Z,12.00
2023-01-17T15:42:44.124Z,6.85
2023-01-17T15:45:57.417Z,5.28
2023-01-17T15:49:39.014Z,4.82
2023-01-17T15:52:50.073Z,2.97
2023-01-17T15:55:53.014Z,3.37
2023-01-17T15:59:34.680Z,3.00
2023-01-17T16:02:42.967Z,2.90
2023-01-17T16:05:47.634Z,2.87
2023-01-17T16:08:54.659Z,2.55
2023-01-17T16:11:58.035Z,3.03
2023-01-17T16:15:11.703Z,2.95
2023-01-17T16:18:23.107Z,2.65
2023-01-17T16:21:31.165Z,2.70
2023-01-17T16:24:34.479Z,2.37
2023-01-17T16:27:37.865Z,2.12
2023-01-17T16:30:41.538Z,1.87
2023-01-17T16:33:46.176Z,1.83
2023-01-17T16:36:54.400Z,1.75
2023-01-17T16:39:57.446Z,1.70
2023-01-17T16:43:01.148Z,1.52
2023-01-17T16:46:04.326Z,1.80
2023-01-17T16:49:07.574Z,1.90
2023-01-17T16:52:10.515Z,2.20
2023-01-17T16:55:15.798Z,2.20
2023-01-17T17:01:25.617Z,3.12
2023-01-17T17:04:28.891Z,3.03
2023-01-17T17:07:35.100Z,3.28
2023-01-17T17:10:38.893Z,3.20
2023-01-17T17:13:44.508Z,3.45
2023-01-17T17:16:51.879Z,3.05
2023-01-17T17:19:55.821Z,3.20
2023-01-17T17:22:59.098Z,3.40
2023-01-17T17:26:02.557Z,3.70
2023-01-17T17:29:11.754Z,3.95
2023-01-17T17:32:15.729Z,3.70
2023-01-17T17:35:19.143Z,3.78
2023-01-17T17:38:23.271Z,3.67
2023-01-17T17:41:28.394Z,3.60
2023-01-17T17:44:32.561Z,3.25
2023-01-17T17:47:35.875Z,3.22
2023-01-17T17:50:39.727Z,3.47
2023-01-17T17:53:42.899Z,3.40
2023-01-17T17:56:47.498Z,3.62
2023-01-17T17:59:51.085Z,4.32
2023-01-17T18:02:54.397Z,3.40
2023-01-17T18:06:05.749Z,3.65
2023-01-17T18:09:10.996Z,4.62
2023-01-17T18:12:17.369Z,3.97
2023-01-17T18:15:21.738Z,4.00
2023-01-17T18:18:25.781Z,4.22
2023-01-17T18:21:34.550Z,3.10
2023-01-17T18:24:38.011Z,3.80
2023-01-17T18:27:45.617Z,3.25
2023-01-17T18:30:49.901Z,3.00
2023-01-17T18:33:55.334Z,2.78
2023-01-17T18:36:59.284Z,2.80
2023-01-17T18:40:03.808Z,2.50
2023-01-17T18:43:09.683Z,2.50
2023-01-17T18:46:13.722Z,2.42
2023-01-17T18:52:25.276Z,2.22
2023-01-17T18:55:28.950Z,2.10
2023-01-17T18:58:40.237Z,2.33
2023-01-17T19:01:44.860Z,2.20
2023-01-17T19:04:53.714Z,1.67
2023-01-17T19:07:58.042Z,1.95
2023-01-17T19:11:04.831Z,1.75
2023-01-17T19:14:10.685Z,1.58
2023-01-17T19:17:14.873Z,1.40
2023-01-17T19:20:19.578Z,1.75
2023-01-17T19:23:23.825Z,1.15
2023-01-17T19:26:28.657Z,1.33
2023-01-17T19:29:33.251Z,0.85
2023-01-17T19:32:37.426Z,1.10
2023-01-17T19:35:41.261Z,1.15
2023-01-17T19:39:03.016Z,1.10
2023-01-17T19:42:11.083Z,1.10
2023-01-17T19:45:17.511Z,1.30
2023-01-17T19:48:23.055Z,1.20
2023-01-17T19:51:31.073Z,0.98
2023-01-17T19:54:37.111Z,1.00
2023-01-17T19:57:42.856Z,1.00
2023-01-17T20:00:48.852Z,1.40
2023-01-17T20:03:57.905Z,1.37
2023-01-17T20:07:03.013Z,1.40
2023-01-17T20:10:09.770Z,1.55
2023-01-17T20:13:14.317Z,1.40
2023-01-17T20:16:18.691Z,1.30
2023-01-17T20:19:24.465Z,1.60
2023-01-17T20:22:28.702Z,1.62
2023-01-17T20:25:34.482Z,1.60
2023-01-17T20:28:40.812Z,1.60
2023-01-17T20:31:45.963Z,1.70
2023-01-17T20:34:54.588Z,1.30
2023-01-17T20:37:58.654Z,1.30
2023-01-17T20:41:02.468Z,1.12
2023-01-17T20:44:09.582Z,1.20
2023-01-17T20:47:13.395Z,0.95
2023-01-17T20:50:18.098Z,0.90
2023-01-17T20:53:26.341Z,0.80
2023-01-17T20:56:34.848Z,0.73
2023-01-17T20:59:38.511Z,0.80
2023-01-17T21:02:42.018Z,0.80
2023-01-17T21:05:46.763Z,0.85
2023-01-17T21:08:52.196Z,0.67
2023-01-17T21:12:01.384Z,0.55
2023-01-17T21:15:05.211Z,0.50
2023-01-17T21:18:10.339Z,0.60
2023-01-17T21:21:18.260Z,0.50
2023-01-17T21:24:21.801Z,0.80
2023-01-17T21:27:25.901Z,0.70
2023-01-17T21:30:29.287Z,1.00
2023-01-17T21:33:32.669Z,0.50
2023-01-17T21:36:38.504Z,0.50
2023-01-17T21:39:41.478Z,0.60
2023-01-17T21:42:45.149Z,0.40
2023-01-17T21:45:48.185Z,0.60
2023-01-17T21:48:51.433Z,0.65
2023-01-17T21:51:54.402Z,0.57
2023-01-17T21:55:16.118Z,0.60
2023-01-17T21:58:37.892Z,0.60
2023-01-17T22:01:41.229Z,0.70
2023-01-17T22:04:44.529Z,0.50
2023-01-17T22:08:06.298Z,0.60
2023-01-17T22:11:18.606Z,0.55
2023-01-17T22:14:21.534Z,0.70
2023-01-17T22:17:24.790Z,0.60
2023-01-17T22:20:28.010Z,0.50
2023-01-17T22:23:31.267Z,0.50
2023-01-17T22:26:35.139Z,0.50
2023-01-17T22:29:38.481Z,0.40
2023-01-17T22:32:41.665Z,0.60
2023-01-17T22:35:44.845Z,0.40
2023-01-17T22:38:48.232Z,0.73
2023-01-17T22:41:51.597Z,0.65
2023-01-17T22:44:54.471Z,0.50
2023-01-17T22:47:57.719Z,0.60
2023-01-17T22:51:02.429Z,0.40
2023-01-17T22:54:05.754Z,0.50
2023-01-17T22:57:09.191Z,0.50
2023-01-17T23:00:17.200Z,0.50
2023-01-17T23:03:20.552Z,0.95
2023-01-17T23:06:32.429Z,1.30
2023-01-17T23:09:35.335Z,1.23
2023-01-17T23:12:38.758Z,0.90
2023-01-17T23:16:01.068Z,0.40
2023-01-17T23:19:22.299Z,0.70
2023-01-17T23:22:27.883Z,0.55
2023-01-17T23:25:31.291Z,0.55
2023-01-17T23:28:34.351Z,0.70
2023-01-17T23:31:37.774Z,0.68
2023-01-17T23:34:41.368Z,0.85
2023-01-17T23:38:03.197Z,0.70
2023-01-17T23:41:26.817Z,1.70
2023-01-17T23:44:32.156Z,1.50
2023-01-17T23:47:36.286Z,1.48
2023-01-17T23:50:42.605Z,1.80
2023-01-17T23:53:45.516Z,1.70
2023-01-17T23:56:48.762Z,1.23
2023-01-17T23:59:51.738Z,1.37
